Time;durP1;ratioP1;P1;durP2;ratioP2;P2;SDS_P1;SDS_P2;PMS_P1;PMS_P2;Temp;Humidity;BMP_temperature;BMP_pressure;BME280_temperature;BME280_humidity;BME280_pressure;Samples;Min_cycle;Max_cycle;Signal;HPM_P1;HPM_P2
2024/03/18 00:01:28;;;;;;;2.10;1.42;;;23.10;37.80;;;;;;6178365;28;81358;-66
2024/03/18 00:04:29;;;;;;;2.70;1.70;;;23.10;37.70;;;;;;6177649;28;80708;-63
2024/03/18 00:07:30;;;;;;;2.25;1.30;;;23.10;37.90;;;;;;6177958;28;80155;-63
2024/03/18 00:10:30;;;;;;;2.63;1.40;;;23.10;37.80;;;;;;6178097;28;80332;-62
2024/03/18 00:13:31;;;;;;;3.83;1.45;;;23.10;37.90;;;;;;6177567;28;80400;-62
2024/03/18 00:16:32;;;;;;;2.78;1.30;;;23.10;37.90;;;;;;6178983;28;85643;-61
2024/03/18 00:19:32;;;;;;;1.48;1.10;;;23.10;37.80;;;;;;6178016;28;80784;-61
2024/03/18 00:22:33;;;;;;;3.35;1.13;;;23.70;37.50;;;;;;6177895;28;80547;-63
2024/03/18 00:25:33;;;;;;;1.10;0.90;;;23.10;37.70;;;;;;6178468;28;81345;-62
2024/03/18 00:28:34;;;;;;;3.35;0.98;;;23.10;37.70;;;;;;6178386;28;81213;-61
2024/03/18 00:31:34;;;;;;;1.52;1.02;;;23.10;37.80;;;;;;6178342;28;80488;-62
2024/03/18 00:34:35;;;;;;;2.30;1.20;;;23.10;37.70;;;;;;6178319;28;80499;-63
2024/03/18 00:37:36;;;;;;;1.27;1.00;;;23.10;37.80;;;;;;6177942;28;81191;-62
2024/03/18 00:40:36;;;;;;;1.42;0.90;;;23.10;38.00;;;;;;6176884;28;80366;-62
2024/03/18 00:43:37;;;;;;;2.65;1.13;;;23.20;38.10;;;;;;6177728;28;80655;-63
2024/03/18 00:46:38;;;;;;;1.58;1.00;;;;;;;;;;6177879;28;80656;-64
2024/03/18 00:49:38;;;;;;;0.90;0.70;;;22.80;56.90;;;;;;6178058;28;80294;-63
2024/03/18 00:52:39;;;;;;;1.48;1.20;;;23.10;38.10;;;;;;6177542;28;80741;-65
2024/03/18 00:55:39;;;;;;;1.88;1.10;;;23.10;38.20;;;;;;6177510;28;80379;-64
2024/03/18 00:58:40;;;;;;;1.50;0.80;;;23.10;38.10;;;;;;6177733;28;80161;-58
2024/03/18 01:01:41;;;;;;;1.73;0.98;;;23.10;38.10;;;;;;6177301;28;80711;-58
2024/03/18 01:04:42;;;;;;;0.98;0.82;;;23.00;38.30;;;;;;6177179;28;80761;-58
2024/03/18 01:07:43;;;;;;;2.00;0.90;;;23.10;38.20;;;;;;6177919;28;80523;-57
2024/03/18 01:10:44;;;;;;;3.08;0.88;;;23.00;38.40;;;;;;6177474;28;80618;-58
2024/03/18 01:13:49;;;;;;;2.47;1.15;;;23.00;38.20;;;;;;6176365;28;80798;-58
2024/03/18 01:16:49;;;;;;;1.80;1.00;;;23.00;38.20;;;;;;6177660;28;81742;-57
2024/03/18 01:19:50;;;;;;;2.35;1.17;;;23.00;38.10;;;;;;6177543;28;80890;-57
2024/03/18 01:22:51;;;;;;;2.05;0.90;;;23.00;38.00;;;;;;6177432;28;80757;-57
2024/03/18 01:25:51;;;;;;;1.02;0.70;;;23.00;38.00;;;;;;6176728;28;81062;-57
2024/03/18 01:28:52;;;;;;;1.65;1.20;;;23.00;38.10;;;;;;6177751;28;80397;-57
2024/03/18 01:31:52;;;;;;;2.13;1.00;;;23.00;37.80;;;;;;6177192;28;80462;-57
2024/03/18 01:34:53;;;;;;;0.93;0.80;;;23.00;37.90;;;;;;6176738;28;81012;-58
2024/03/18 01:37:54;;;;;;;1.25;0.82;;;23.00;38.00;;;;;;6176761;28;81906;-59
2024/03/18 01:40:54;;;;;;;3.35;1.08;;;23.00;37.80;;;;;;6177508;28;80526;-59
2024/03/18 01:43:55;;;;;;;1.75;1.15;;;23.00;37.80;;;;;;6176739;28;81345;-59
2024/03/18 01:46:55;;;;;;;1.67;1.08;;;23.00;37.80;;;;;;6184896;28;80428;-58
2024/03/18 01:49:56;;;;;;;2.53;1.40;;;23.00;38.00;;;;;;6181177;28;81072;-58
2024/03/18 01:52:56;;;;;;;1.48;1.02;;;23.00;38.20;;;;;;6176610;28;87704;-58
2024/03/18 01:55:57;;;;;;;2.42;1.10;;;23.00;38.20;;;;;;6176807;28;80582;-60
2024/03/18 01:58:58;;;;;;;1.77;1.17;;;23.00;37.90;;;;;;6177149;28;80210;-59
2024/03/18 02:01:59;;;;;;;1.67;1.23;;;23.10;38.10;;;;;;6174770;28;83865;-58
2024/03/18 02:04:59;;;;;;;1.90;1.02;;;23.10;38.20;;;;;;6176497;28;81335;-59
2024/03/18 02:08:00;;;;;;;2.03;1.20;;;23.00;38.20;;;;;;6176833;28;80519;-59
2024/03/18 02:11:00;;;;;;;1.80;1.20;;;23.00;37.80;;;;;;6172975;28;80424;-58
2024/03/18 02:14:01;;;;;;;4.25;1.08;;;23.10;37.90;;;;;;6176429;28;80734;-55
2024/03/18 02:17:03;;;;;;;2.72;1.15;;;23.00;37.90;;;;;;6176489;28;81664;-51
2024/03/18 02:20:05;;;;;;;3.17;1.10;;;23.00;38.10;;;;;;6176524;28;80291;-57
2024/03/18 02:23:06;;;;;;;2.13;1.23;;;23.00;38.50;;;;;;6176364;28;80427;-57
2024/03/18 02:26:06;;;;;;;2.60;1.55;;;23.00;38.00;;;;;;6179175;28;86689;-56
2024/03/18 02:29:07;;;;;;;1.58;1.23;;;23.00;38.00;;;;;;6180553;28;81037;-58
2024/03/18 02:32:07;;;;;;;2.30;1.20;;;23.00;37.60;;;;;;6181115;28;80653;-58
2024/03/18 02:35:08;;;;;;;2.25;1.10;;;23.00;37.60;;;;;;6179956;28;80447;-58
2024/03/18 02:38:09;;;;;;;1.70;1.13;;;22.90;37.60;;;;;;6180935;28;81670;-57
2024/03/18 02:41:09;;;;;;;2.08;1.40;;;22.90;37.60;;;;;;6180427;28;80297;-57
2024/03/18 02:44:10;;;;;;;1.80;1.38;;;22.90;37.50;;;;;;6180198;28;80322;-58
2024/03/18 02:47:11;;;;;;;2.22;1.27;;;22.90;37.50;;;;;;6179730;28;80858;-57
2024/03/18 02:50:14;;;;;;;2.72;1.17;;;22.90;37.40;;;;;;6180756;28;81478;-57
2024/03/18 02:53:15;;;;;;;3.65;1.25;;;22.90;37.30;;;;;;6179716;28;80913;-57
2024/03/18 02:56:15;;;;;;;1.70;1.05;;;22.90;37.40;;;;;;6180103;28;80473;-58
2024/03/18 02:59:16;;;;;;;1.42;1.20;;;22.90;37.40;;;;;;6179671;28;80727;-60
2024/03/18 03:02:16;;;;;;;1.52;1.10;;;22.90;37.40;;;;;;6180206;28;80428;-58
2024/03/18 03:05:17;;;;;;;1.38;1.02;;;22.90;38.00;;;;;;6179936;28;81473;-58
2024/03/18 03:08:20;;;;;;;3.40;1.40;;;22.90;37.50;;;;;;6180053;28;80678;-57
2024/03/18 03:11:21;;;;;;;3.30;1.38;;;22.80;37.30;;;;;;6179776;28;80976;-59
2024/03/18 03:14:21;;;;;;;3.35;1.13;;;22.80;37.40;;;;;;6179587;28;80282;-57
2024/03/18 03:17:24;;;;;;;3.05;1.23;;;22.80;37.30;;;;;;6179865;28;81333;-57
2024/03/18 03:20:30;;;;;;;1.63;1.15;;;22.80;37.50;;;;;;6179729;28;81025;-59
2024/03/18 03:23:31;;;;;;;2.00;1.20;;;22.80;38.10;;;;;;6179578;28;81763;-56
2024/03/18 03:26:32;;;;;;;2.00;1.10;;;22.90;37.70;;;;;;6178341;28;81572;-53
2024/03/18 03:29:33;;;;;;;1.23;0.88;;;22.90;37.40;;;;;;6176988;28;80541;-51
2024/03/18 03:32:34;;;;;;;2.22;1.15;;;22.90;37.60;;;;;;6177315;28;80429;-56
2024/03/18 03:35:34;;;;;;;1.23;0.90;;;22.90;37.70;;;;;;6179195;28;80407;-52
2024/03/18 03:38:35;;;;;;;1.92;1.10;;;22.90;37.60;;;;;;6178147;28;80549;-49
2024/03/18 03:41:35;;;;;;;2.30;1.17;;;22.90;38.10;;;;;;6178704;28;81629;-55
2024/03/18 03:44:36;;;;;;;2.80;1.20;;;22.90;38.10;;;;;;6176029;28;81592;-55
2024/03/18 03:47:36;;;;;;;3.47;1.35;;;22.90;38.40;;;;;;6178804;28;82102;-55
2024/03/18 03:50:37;;;;;;;1.33;0.93;;;22.90;38.40;;;;;;6179199;28;80847;-51
2024/03/18 03:53:39;;;;;;;1.92;1.00;;;22.80;38.10;;;;;;6178922;28;80391;-56
2024/03/18 03:56:39;;;;;;;1.55;1.00;;;22.90;38.10;;;;;;6178764;28;80684;-52
2024/03/18 03:59:40;;;;;;;0.77;0.65;;;22.80;38.20;;;;;;6178263;28;80543;-56
2024/03/18 04:02:40;;;;;;;1.48;0.88;;;22.90;38.40;;;;;;6177025;28;81100;-53
2024/03/18 04:05:41;;;;;;;3.55;1.13;;;22.90;38.30;;;;;;6175631;28;81239;-55
2024/03/18 04:08:41;;;;;;;1.30;0.70;;;22.80;38.50;;;;;;6178600;28;80412;-54
2024/03/18 04:11:42;;;;;;;0.93;0.70;;;22.90;38.80;;;;;;6176653;28;80833;-54
2024/03/18 04:14:42;;;;;;;1.60;0.80;;;22.90;38.80;;;;;;6178786;28;80545;-55
2024/03/18 04:17:43;;;;;;;0.93;0.70;;;22.90;38.60;;;;;;6172665;28;81726;-59
2024/03/18 04:20:43;;;;;;;0.95;0.60;;;22.90;38.90;;;;;;6178152;28;80951;-58
2024/03/18 04:23:44;;;;;;;1.60;0.63;;;22.90;38.90;;;;;;6178349;28;81199;-58
2024/03/18 04:26:47;;;;;;;0.70;0.70;;;23.00;38.60;;;;;;6177551;28;80339;-58
2024/03/18 04:29:47;;;;;;;1.20;0.70;;;23.00;38.40;;;;;;6177617;28;81071;-59
2024/03/18 04:32:48;;;;;;;0.93;0.70;;;23.10;38.30;;;;;;6177791;28;81446;-56
2024/03/18 04:35:48;;;;;;;0.65;0.60;;;23.10;38.20;;;;;;6167427;28;80716;-57
2024/03/18 04:38:49;;;;;;;0.70;0.60;;;23.20;38.30;;;;;;6178087;28;80822;-57
2024/03/18 04:41:49;;;;;;;1.83;0.70;;;23.20;38.10;;;;;;6177848;28;80233;-55
2024/03/18 04:44:50;;;;;;;0.57;0.57;;;23.30;38.00;;;;;;6177935;28;80327;-56
2024/03/18 04:47:50;;;;;;;0.70;0.50;;;23.30;38.00;;;;;;6177186;28;80741;-56
2024/03/18 04:50:51;;;;;;;1.08;0.70;;;23.30;38.00;;;;;;6176566;28;80739;-56
2024/03/18 04:53:51;;;;;;;1.02;0.82;;;23.40;37.80;;;;;;6177496;28;81485;-58
2024/03/18 04:56:52;;;;;;;1.55;0.60;;;23.40;37.80;;;;;;6177977;28;80751;-54
2024/03/18 04:59:52;;;;;;;1.95;0.80;;;23.40;37.80;;;;;;6177654;28;80829;-56
2024/03/18 05:02:53;;;;;;;1.73;0.90;;;23.50;37.90;;;;;;6174875;28;80514;-59
2024/03/18 05:05:53;;;;;;;0.68;0.47;;;23.50;38.00;;;;;;6173029;28;82700;-59
2024/03/18 05:08:54;;;;;;;0.95;0.73;;;23.50;38.10;;;;;;6184933;28;80248;-56
2024/03/18 05:11:55;;;;;;;0.70;0.70;;;23.50;38.30;;;;;;6177605;28;80193;-59
2024/03/18 05:14:55;;;;;;;1.15;0.60;;;23.50;38.00;;;;;;6177712;28;80577;-53
2024/03/18 05:17:56;;;;;;;0.80;0.60;;;23.50;38.10;;;;;;6177251;28;80305;-54
2024/03/18 05:20:56;;;;;;;1.27;0.77;;;23.50;38.60;;;;;;6176688;28;80852;-51
2024/03/18 05:23:57;;;;;;;0.95;0.50;;;23.50;38.90;;;;;;6177310;28;80511;-55
2024/03/18 05:26:57;;;;;;;0.90;0.70;;;23.60;39.30;;;;;;6177364;28;80704;-60
2024/03/18 05:29:58;;;;;;;1.05;0.60;;;23.60;39.40;;;;;;6177573;28;80409;-61
2024/03/18 05:32:58;;;;;;;1.15;0.75;;;23.60;39.90;;;;;;6176975;28;80262;-53
2024/03/18 05:35:59;;;;;;;0.73;0.60;;;23.70;40.00;;;;;;6177078;28;80130;-53
2024/03/18 05:38:59;;;;;;;1.55;0.68;;;23.60;40.10;;;;;;6174203;28;81411;-57
2024/03/18 05:42:00;;;;;;;0.88;0.70;;;23.70;40.50;;;;;;6172912;28;80732;-52
2024/03/18 05:45:01;;;;;;;1.02;0.65;;;23.70;40.50;;;;;;6143009;28;86777;-59
2024/03/18 05:48:01;;;;;;;3.05;0.55;;;23.70;40.50;;;;;;6156538;28;81188;-60
2024/03/18 05:51:02;;;;;;;3.95;1.10;;;23.70;40.30;;;;;;6167856;28;81105;-58
2024/03/18 05:54:05;;;;;;;2.33;0.68;;;23.70;40.10;;;;;;6173507;28;80548;-58
2024/03/18 05:57:06;;;;;;;7.03;0.93;;;23.80;40.30;;;;;;6167076;28;80553;-56
2024/03/18 06:00:07;;;;;;;3.50;1.08;;;23.80;40.50;;;;;;6168976;28;80806;-58
2024/03/18 06:03:12;;;;;;;;;;;23.80;40.50;;;;;;6176627;28;80373;-58
2024/03/18 06:06:12;;;;;;;7.70;1.30;;;23.80;40.50;;;;;;6180808;28;80491;-59
2024/03/18 06:09:13;;;;;;;1.80;1.10;;;23.80;40.20;;;;;;6176047;28;80462;-58
2024/03/18 06:12:14;;;;;;;4.90;1.33;;;23.80;40.40;;;;;;6176960;28;81323;-58
2024/03/18 06:15:14;;;;;;;2.15;1.00;;;23.70;40.20;;;;;;6179610;28;80280;-58
2024/03/18 06:18:15;;;;;;;2.67;1.48;;;23.70;40.20;;;;;;6179638;28;80707;-58
2024/03/18 06:21:18;;;;;;;1.27;0.80;;;23.60;40.20;;;;;;6175752;28;81149;-58
2024/03/18 06:24:25;;;;;;;3.45;1.35;;;23.60;40.20;;;;;;6175867;28;82597;-60
2024/03/18 06:27:25;;;;;;;3.92;0.90;;;23.60;40.10;;;;;;6179462;28;81047;-60
2024/03/18 06:30:26;;;;;;;2.60;1.15;;;23.60;40.10;;;;;;6179180;28;81761;-59
2024/03/18 06:33:27;;;;;;;5.60;1.40;;;23.60;40.10;;;;;;6172355;28;80689;-62
2024/03/18 06:36:27;;;;;;;3.03;1.27;;;23.60;40.00;;;;;;6176971;28;80632;-60
2024/03/18 06:39:28;;;;;;;2.88;1.35;;;23.60;40.20;;;;;;6178168;28;80603;-58
2024/03/18 06:42:28;;;;;;;1.73;1.00;;;23.60;40.20;;;;;;6178938;28;81320;-56
2024/03/18 06:45:29;;;;;;;2.05;1.42;;;23.60;40.00;;;;;;6183891;28;80415;-60
2024/03/18 06:48:29;;;;;;;4.50;2.08;;;23.50;38.70;;;;;;6177876;28;80688;-60
2024/03/18 06:51:30;;;;;;;6.00;2.50;;;23.30;37.50;;;;;;6176485;28;82307;-59
2024/03/18 06:54:30;;;;;;;5.95;2.90;;;23.20;37.10;;;;;;6177600;28;81716;-59
2024/03/18 06:57:31;;;;;;;5.75;2.83;;;23.10;35.40;;;;;;6177993;28;81607;-60
2024/03/18 07:00:31;;;;;;;4.13;2.40;;;22.80;34.60;;;;;;6172131;28;81019;-59
2024/03/18 07:03:32;;;;;;;5.00;2.15;;;22.60;33.20;;;;;;6174776;28;80925;-53
2024/03/18 07:06:33;;;;;;;4.65;2.20;;;22.60;33.20;;;;;;6178501;28;80908;-53
2024/03/18 07:09:33;;;;;;;2.80;2.00;;;22.50;33.50;;;;;;6179230;28;81013;-53
2024/03/18 07:12:34;;;;;;;3.22;2.25;;;22.40;33.20;;;;;;6176588;28;80416;-49
2024/03/18 07:15:34;;;;;;;5.68;2.35;;;22.40;33.40;;;;;;6178392;28;80629;-52
2024/03/18 07:18:35;;;;;;;4.05;2.40;;;22.30;33.30;;;;;;6179274;28;80417;-54
2024/03/18 07:21:36;;;;;;;4.97;2.05;;;22.30;33.40;;;;;;6177897;28;80661;-54
2024/03/18 07:24:37;;;;;;;4.30;2.33;;;22.20;33.10;;;;;;6179061;28;81440;-53
2024/03/18 07:27:38;;;;;;;5.03;2.22;;;22.20;33.00;;;;;;6181961;28;80945;-53
2024/03/18 07:30:39;;;;;;;4.88;2.50;;;22.20;33.20;;;;;;6181560;28;80658;-55
2024/03/18 07:33:39;;;;;;;4.53;1.90;;;22.10;33.20;;;;;;6178011;28;80334;-54
2024/03/18 07:36:40;;;;;;;3.13;1.77;;;22.10;33.40;;;;;;6179066;28;80882;-55
2024/03/18 07:39:40;;;;;;;2.72;2.05;;;22.10;33.20;;;;;;6178979;28;81406;-54
2024/03/18 07:42:41;;;;;;;4.03;2.15;;;22.10;33.30;;;;;;6178925;28;80272;-58
2024/03/18 07:45:41;;;;;;;4.63;1.77;;;22.10;33.30;;;;;;6178576;28;80826;-57
2024/03/18 07:48:42;;;;;;;4.53;2.65;;;22.00;33.10;;;;;;6178462;28;80251;-58
2024/03/18 07:51:42;;;;;;;6.47;3.10;;;22.00;33.70;;;;;;6177813;28;80506;-58
2024/03/18 07:54:43;;;;;;;4.07;2.50;;;22.00;33.50;;;;;;6179079;28;81311;-59
2024/03/18 07:57:44;;;;;;;4.18;1.95;;;22.00;33.40;;;;;;6178472;28;80790;-58
2024/03/18 08:00:45;;;;;;;6.07;2.50;;;22.00;33.40;;;;;;6178865;28;80291;-59
2024/03/18 08:03:45;;;;;;;3.45;1.80;;;22.00;33.20;;;;;;6178141;28;80342;-59
2024/03/18 08:06:46;;;;;;;2.30;1.88;;;22.00;33.20;;;;;;6173552;28;80712;-60
2024/03/18 08:09:47;;;;;;;2.35;1.60;;;21.90;32.70;;;;;;6177236;28;80479;-59
2024/03/18 08:12:47;;;;;;;2.65;1.55;;;22.00;33.20;;;;;;6175986;28;80602;-59
2024/03/18 08:15:48;;;;;;;2.45;1.45;;;22.00;33.00;;;;;;6176983;28;80665;-59
2024/03/18 08:18:48;;;;;;;5.40;1.50;;;22.00;32.90;;;;;;6178416;28;80814;-52
2024/03/18 08:21:49;;;;;;;4.45;1.23;;;22.00;32.70;;;;;;6177913;28;80622;-55
2024/03/18 08:24:49;;;;;;;1.85;1.40;;;21.90;32.30;;;;;;6177416;28;80473;-54
2024/03/18 08:27:50;;;;;;;2.17;1.38;;;21.90;32.50;;;;;;6178292;28;80871;-54
2024/03/18 08:30:50;;;;;;;4.45;1.08;;;21.90;32.60;;;;;;6177361;28;80545;-54
2024/03/18 08:33:52;;;;;;;1.77;1.27;;;21.90;32.10;;;;;;6178110;28;80975;-52
2024/03/18 08:36:53;;;;;;;1.30;1.15;;;21.90;32.10;;;;;;6178015;28;80556;-53
2024/03/18 08:39:55;;;;;;;2.30;1.30;;;21.90;32.30;;;;;;6177707;28;80983;-52
2024/03/18 08:42:56;;;;;;;1.13;0.88;;;21.90;31.90;;;;;;6177302;28;80418;-54
2024/03/18 08:45:57;;;;;;;1.33;1.10;;;21.90;31.90;;;;;;6178481;28;80428;-55
2024/03/18 08:48:57;;;;;;;4.18;1.10;;;21.90;31.90;;;;;;6177641;28;80809;-54
2024/03/18 08:51:58;;;;;;;1.30;1.00;;;21.80;32.00;;;;;;6148020;28;80540;-55
2024/03/18 08:54:58;;;;;;;2.17;1.00;;;21.80;32.00;;;;;;6167723;28;81647;-52
2024/03/18 08:57:59;;;;;;;1.42;0.93;;;21.80;31.90;;;;;;6177438;28;80249;-54
2024/03/18 09:01:01;;;;;;;2.10;1.30;;;21.80;31.70;;;;;;6178093;28;81385;-51
2024/03/18 09:04:03;;;;;;;2.42;1.48;;;21.80;31.90;;;;;;6177313;28;81364;-54
2024/03/18 09:07:04;;;;;;;3.15;1.30;;;21.80;31.80;;;;;;6176299;28;81878;-51
2024/03/18 09:10:04;;;;;;;1.30;0.93;;;21.90;31.60;;;;;;6177799;28;80779;-52
2024/03/18 09:13:05;;;;;;;2.10;1.13;;;21.80;31.70;;;;;;6177064;28;80367;-62
2024/03/18 09:16:06;;;;;;;1.48;0.90;;;21.80;31.60;;;;;;6177628;28;80387;-62
2024/03/18 09:19:06;;;;;;;1.98;1.33;;;21.90;31.70;;;;;;6177354;28;80751;-63
2024/03/18 09:22:10;;;;;;;4.22;1.35;;;21.90;31.60;;;;;;6177961;28;81890;-63
2024/03/18 09:25:11;;;;;;;8.07;1.83;;;21.90;31.80;;;;;;6176477;28;81175;-63
2024/03/18 09:28:12;;;;;;;3.58;1.08;;;21.90;31.70;;;;;;6176912;28;87972;-62
2024/03/18 09:31:12;;;;;;;3.15;1.40;;;21.90;31.30;;;;;;6177688;28;80355;-53
2024/03/18 09:34:17;;;;;;;2.63;0.98;;;21.80;31.40;;;;;;6177036;28;81984;-53
2024/03/18 09:37:17;;;;;;;1.80;1.20;;;21.80;31.20;;;;;;6181011;28;80430;-57
2024/03/18 09:40:18;;;;;;;2.38;1.30;;;21.90;31.40;;;;;;6181554;28;80658;-57
2024/03/18 09:43:20;;;;;;;1.85;1.20;;;21.90;31.40;;;;;;6180786;28;80994;-51
2024/03/18 09:46:21;;;;;;;3.63;1.45;;;21.90;31.20;;;;;;6181606;28;80403;-53
2024/03/18 09:49:22;;;;;;;2.15;1.20;;;21.90;31.10;;;;;;6181409;28;80468;-53
2024/03/18 09:52:23;;;;;;;8.75;1.20;;;21.80;31.00;;;;;;6181498;28;81045;-53
2024/03/18 09:55:24;;;;;;;2.17;1.13;;;21.80;31.70;;;;;;6166929;28;84766;-51
2024/03/18 09:58:24;;;;;;;2.50;1.13;;;21.80;31.00;;;;;;6181319;28;83044;-53
2024/03/18 10:01:25;;;;;;;1.95;1.10;;;21.80;31.00;;;;;;6179282;28;81035;-59
2024/03/18 10:04:25;;;;;;;2.10;1.48;;;21.80;32.40;;;;;;6181146;28;80424;-57
2024/03/18 10:07:26;;;;;;;2.53;1.17;;;21.80;32.70;;;;;;6181011;28;81370;-68
2024/03/18 10:10:27;;;;;;;4.78;1.40;;;21.90;33.30;;;;;;6180292;28;88398;-71
2024/03/18 10:13:27;;;;;;;3.47;1.23;;;22.00;33.50;;;;;;6179626;28;81563;-70
2024/03/18 10:16:28;;;;;;;5.68;1.42;;;22.00;33.80;;;;;;6182222;28;81084;-69
2024/03/18 10:19:28;;;;;;;2.42;1.27;;;22.10;34.30;;;;;;6180143;28;80513;-70
2024/03/18 10:22:29;;;;;;;2.03;1.25;;;22.20;34.80;;;;;;6180879;28;80499;-69
2024/03/18 10:25:29;;;;;;;5.97;1.33;;;22.20;34.60;;;;;;6181366;28;80338;-69
2024/03/18 10:28:30;;;;;;;3.05;1.48;;;22.30;35.40;;;;;;6180900;28;81088;-51
2024/03/18 10:31:37;;;;;;;3.97;1.27;;;22.30;35.30;;;;;;6180248;28;80271;-54
2024/03/18 10:34:38;;;;;;;4.30;1.55;;;22.30;35.60;;;;;;6180240;28;85132;-54
2024/03/18 10:37:39;;;;;;;2.90;1.13;;;22.40;35.30;;;;;;6180814;28;80606;-53
2024/03/18 10:40:39;;;;;;;3.05;1.40;;;22.40;35.30;;;;;;6180132;28;80322;-52
2024/03/18 10:43:40;;;;;;;3.10;1.13;;;22.50;35.70;;;;;;6180581;28;81319;-48
2024/03/18 10:46:40;;;;;;;3.92;1.40;;;22.50;34.80;;;;;;6179150;28;80303;-56
2024/03/18 10:49:41;;;;;;;1.95;1.20;;;22.60;34.70;;;;;;6180186;28;80747;-56
2024/03/18 10:52:41;;;;;;;3.65;1.13;;;22.60;34.60;;;;;;6179594;28;80527;-58
2024/03/18 10:55:43;;;;;;;4.50;1.55;;;22.70;34.50;;;;;;6179955;28;81971;-58
2024/03/18 10:58:43;;;;;;;2.05;1.40;;;22.80;34.40;;;;;;6177747;28;80357;-57
2024/03/18 11:01:44;;;;;;;2.85;1.63;;;22.80;34.40;;;;;;6178352;28;81357;-56
2024/03/18 11:04:44;;;;;;;3.92;1.50;;;22.80;34.30;;;;;;6179258;28;80311;-55
2024/03/18 11:07:45;;;;;;;2.50;1.40;;;22.90;34.30;;;;;;6179521;28;80439;-50
2024/03/18 11:10:45;;;;;;;3.75;1.40;;;23.00;34.30;;;;;;6179539;28;81435;-53
2024/03/18 11:13:46;;;;;;;2.63;1.20;;;23.00;34.30;;;;;;6179510;28;80919;-55
2024/03/18 11:16:46;;;;;;;3.33;1.63;;;23.00;34.30;;;;;;6179461;28;80419;-53
2024/03/18 11:19:47;;;;;;;2.90;1.40;;;23.10;34.20;;;;;;6180109;28;81038;-52
2024/03/18 11:22:48;;;;;;;4.43;1.40;;;23.10;34.20;;;;;;6179670;28;80432;-56
2024/03/18 11:25:49;;;;;;;2.35;1.48;;;23.10;34.20;;;;;;6179171;28;80740;-56
2024/03/18 11:28:51;;;;;;;2.50;1.35;;;23.20;34.20;;;;;;6178992;28;80889;-54
2024/03/18 11:31:52;;;;;;;2.70;1.65;;;23.20;34.20;;;;;;6179363;28;80663;-56
2024/03/18 11:34:53;;;;;;;4.03;1.50;;;23.20;34.20;;;;;;6179358;28;80449;-56
2024/03/18 11:37:53;;;;;;;4.03;1.42;;;23.20;34.30;;;;;;6179110;28;80647;-56
2024/03/18 11:40:54;;;;;;;2.42;1.10;;;23.20;34.30;;;;;;6179177;28;80290;-56
2024/03/18 11:43:54;;;;;;;3.53;1.88;;;23.20;34.30;;;;;;6179043;28;80299;-55
2024/03/18 11:46:55;;;;;;;3.05;1.45;;;23.30;34.40;;;;;;6179157;28;80392;-54
2024/03/18 11:49:55;;;;;;;2.83;1.30;;;23.30;34.40;;;;;;6178847;28;81230;-55
2024/03/18 11:52:56;;;;;;;3.25;1.63;;;23.30;34.50;;;;;;6179042;28;80549;-53
2024/03/18 11:55:58;;;;;;;3.33;1.55;;;23.30;34.50;;;;;;6178306;28;80192;-55
2024/03/18 11:58:59;;;;;;;2.92;1.40;;;23.30;34.60;;;;;;6178057;28;81091;-55
2024/03/18 12:02:02;;;;;;;4.15;1.60;;;23.30;34.50;;;;;;6178661;28;80471;-53
2024/03/18 12:05:03;;;;;;;3.25;1.83;;;23.30;34.60;;;;;;6177769;28;80695;-55
2024/03/18 12:08:03;;;;;;;2.80;1.67;;;23.30;34.70;;;;;;6173841;28;84809;-54
2024/03/18 12:11:04;;;;;;;2.50;1.60;;;23.30;34.60;;;;;;6177959;28;81170;-55
2024/03/18 12:14:04;;;;;;;2.42;1.20;;;23.30;34.60;;;;;;6176855;28;81646;-56
2024/03/18 12:17:05;;;;;;;2.35;1.58;;;23.30;34.50;;;;;;6177866;28;80625;-52
2024/03/18 12:20:06;;;;;;;3.53;1.63;;;23.40;35.00;;;;;;6178256;28;81762;-53
2024/03/18 12:23:10;;;;;;;4.50;1.80;;;23.30;37.00;;;;;;6178216;28;81198;-52
2024/03/18 12:29:29;;;;;;;4.82;1.70;;;23.40;37.60;;;;;;6172441;28;80922;-50
2024/03/18 12:32:30;;;;;;;5.50;1.80;;;23.40;38.30;;;;;;6177612;28;80313;-54
2024/03/18 12:35:30;;;;;;;3.25;1.52;;;23.40;37.30;;;;;;6177684;28;80276;-55
2024/03/18 12:38:31;;;;;;;4.60;2.42;;;23.40;37.20;;;;;;6178475;28;81352;-56
2024/03/18 12:41:31;;;;;;;2.28;1.83;;;23.40;36.80;;;;;;6177741;28;81080;-55
2024/03/18 12:44:32;;;;;;;5.18;1.60;;;23.40;36.50;;;;;;6178346;28;80982;-55
2024/03/18 12:47:32;;;;;;;5.32;1.90;;;23.40;36.40;;;;;;6177982;28;80944;-54
2024/03/18 12:50:33;;;;;;;3.08;1.73;;;23.40;36.50;;;;;;6177899;28;80763;-56
2024/03/18 12:53:35;;;;;;;5.80;1.80;;;23.30;36.30;;;;;;6177539;28;80561;-57
2024/03/18 12:56:35;;;;;;;3.83;1.45;;;23.30;36.30;;;;;;6175587;28;81481;-58
2024/03/18 12:59:36;;;;;;;2.97;1.48;;;23.30;36.10;;;;;;6173423;28;80999;-57
2024/03/18 13:02:37;;;;;;;3.55;1.92;;;23.30;36.30;;;;;;6177812;28;80954;-58
2024/03/18 13:05:37;;;;;;;3.38;1.70;;;23.30;36.10;;;;;;6174267;28;81200;-55
2024/03/18 13:08:39;;;;;;;3.45;2.42;;;23.20;36.00;;;;;;6176691;28;80421;-58
2024/03/18 13:11:39;;;;;;;4.60;1.75;;;23.20;35.70;;;;;;6176753;28;80779;-68
2024/03/18 13:14:40;;;;;;;2.78;1.90;;;23.20;35.50;;;;;;6177947;28;80865;-70
2024/03/18 13:17:40;;;;;;;4.22;1.75;;;23.20;35.50;;;;;;6179652;28;80598;-72
2024/03/18 13:20:41;;;;;;;4.00;2.13;;;23.20;35.50;;;;;;6179212;28;80542;-70
2024/03/18 13:23:41;;;;;;;5.22;1.80;;;23.20;35.40;;;;;;6178487;28;80416;-73
2024/03/18 13:26:42;;;;;;;2.78;1.90;;;23.20;35.40;;;;;;6177998;28;81274;-70
2024/03/18 13:29:43;;;;;;;2.88;1.77;;;23.20;35.30;;;;;;6176239;28;80368;-54
2024/03/18 13:32:44;;;;;;;3.38;1.80;;;23.20;35.40;;;;;;6171747;28;80721;-55
2024/03/18 13:35:46;;;;;;;3.25;1.65;;;23.10;35.30;;;;;;6176857;28;80899;-56
2024/03/18 13:38:47;;;;;;;3.35;1.83;;;23.10;35.40;;;;;;6176693;28;82395;-58
2024/03/18 13:41:47;;;;;;;2.60;1.75;;;23.10;35.50;;;;;;6177691;28;80969;-55
2024/03/18 13:44:48;;;;;;;2.58;1.88;;;23.10;35.60;;;;;;6175334;28;80888;-53
2024/03/18 13:47:53;;;;;;;3.03;1.70;;;23.00;35.50;;;;;;6176975;28;81467;-53
2024/03/18 13:50:53;;;;;;;3.45;1.90;;;23.00;35.70;;;;;;6160187;28;82946;-53
2024/03/18 13:53:54;;;;;;;4.78;1.88;;;23.00;35.80;;;;;;6179182;28;80596;-55
2024/03/18 13:56:54;;;;;;;3.50;2.03;;;23.00;36.00;;;;;;6185371;28;80235;-55
2024/03/18 13:59:56;;;;;;;2.78;1.83;;;23.00;35.90;;;;;;6176292;28;80997;-51
2024/03/18 14:02:56;;;;;;;2.08;1.63;;;23.00;36.00;;;;;;6175381;28;82619;-54
2024/03/18 14:05:57;;;;;;;2.75;1.75;;;23.00;35.80;;;;;;6175112;28;80350;-54
2024/03/18 14:08:57;;;;;;;3.03;1.73;;;23.00;35.90;;;;;;6175790;28;82254;-54
2024/03/18 14:12:00;;;;;;;3.92;1.92;;;23.00;36.00;;;;;;6175555;28;80285;-55
2024/03/18 14:15:03;;;;;;;2.65;2.13;;;23.00;35.80;;;;;;6170244;28;81638;-57
2024/03/18 14:18:04;;;;;;;3.70;1.75;;;23.00;35.90;;;;;;6175878;28;80672;-55
2024/03/18 14:21:05;;;;;;;4.90;2.10;;;22.90;35.80;;;;;;6175991;28;80164;-56
2024/03/18 14:24:06;;;;;;;3.47;1.90;;;22.90;35.80;;;;;;6178216;28;80766;-57
2024/03/18 14:27:09;;;;;;;2.83;1.85;;;23.00;35.90;;;;;;6178118;28;80223;-56
2024/03/18 14:30:09;;;;;;;2.42;1.73;;;22.90;36.00;;;;;;6179354;28;81238;-59
2024/03/18 14:33:10;;;;;;;1.98;1.77;;;22.90;35.90;;;;;;6179338;28;80590;-58
2024/03/18 14:36:10;;;;;;;3.20;1.75;;;22.90;35.90;;;;;;6179719;28;80996;-58
2024/03/18 14:39:11;;;;;;;5.13;2.00;;;22.90;35.90;;;;;;6178675;28;82307;-59
2024/03/18 14:42:11;;;;;;;3.22;1.85;;;22.90;36.00;;;;;;6179311;28;83325;-58
2024/03/18 14:45:12;;;;;;;3.03;1.90;;;22.80;36.10;;;;;;6179438;28;80638;-67
2024/03/18 14:48:12;;;;;;;2.78;1.85;;;22.80;36.00;;;;;;6173585;28;80545;-65
2024/03/18 14:51:13;;;;;;;2.72;2.00;;;22.80;36.20;;;;;;6174289;28;83565;-66
2024/03/18 14:54:13;;;;;;;3.45;2.08;;;22.80;36.20;;;;;;6178637;28;80817;-66
2024/03/18 14:57:14;;;;;;;9.35;1.92;;;22.90;36.30;;;;;;6183576;28;80769;-71
2024/03/18 15:00:16;;;;;;;6.15;2.40;;;22.90;36.40;;;;;;6180374;28;80536;-66
2024/03/18 15:03:17;;;;;;;5.15;2.08;;;22.90;36.80;;;;;;6172119;28;83523;-57
2024/03/18 15:06:18;;;;;;;13.40;2.08;;;22.90;36.90;;;;;;6172843;28;80927;-57
2024/03/18 15:09:19;;;;;;;14.52;2.47;;;22.90;37.10;;;;;;6174021;28;83002;-57
2024/03/18 15:12:20;;;;;;;11.18;1.88;;;22.90;37.10;;;;;;6175111;28;80712;-56
2024/03/18 15:15:20;;;;;;;7.75;2.85;;;22.90;37.50;;;;;;6178243;28;80196;-56
2024/03/18 15:18:21;;;;;;;6.10;2.58;;;22.90;37.70;;;;;;6177795;28;80413;-58
2024/03/18 15:21:22;;;;;;;5.38;2.17;;;22.90;38.20;;;;;;6177735;28;80850;-56
2024/03/18 15:24:38;;;;;;;8.32;2.13;;;22.90;38.00;;;;;;6179140;28;80492;-57
2024/03/18 15:27:45;;;;;;;7.10;2.53;;;23.00;38.00;;;;;;6177911;28;81388;-55
2024/03/18 15:30:47;;;;;;;6.32;1.60;;;22.90;37.70;;;;;;6177838;28;80951;-62
2024/03/18 15:33:47;;;;;;;6.40;2.03;;;22.90;38.00;;;;;;6174220;28;80876;-59
2024/03/18 15:36:48;;;;;;;7.20;2.13;;;22.90;37.90;;;;;;6178797;28;80866;-57
2024/03/18 15:39:48;;;;;;;7.20;2.30;;;23.00;37.90;;;;;;6177550;28;81466;-56
2024/03/18 15:42:51;;;;;;;4.78;2.15;;;22.90;38.00;;;;;;6178211;28;80727;-58
2024/03/18 15:45:51;;;;;;;11.93;1.90;;;23.00;38.50;;;;;;6186313;28;80573;-57